createdAt,value
2018-07-13T00:01:26.412Z,47.90
2018-07-13T00:03:55.509Z,47.90
2018-07-13T00:06:24.901Z,47.90
2018-07-13T00:08:54.089Z,47.90
2018-07-13T00:11:23.255Z,47.90
2018-07-13T00:14:01.102Z,47.90
2018-07-13T00:16:30.219Z,47.90
2018-07-13T00:18:59.161Z,47.90
2018-07-13T00:21:28.190Z,47.90
2018-07-13T00:23:57.362Z,47.90
2018-07-13T00:26:26.529Z,47.90
2018-07-13T00:28:55.954Z,47.90
2018-07-13T00:31:25.039Z,47.90
2018-07-13T00:33:54.248Z,47.90
2018-07-13T00:36:23.764Z,47.90
2018-07-13T00:38:53.233Z,47.90
2018-07-13T00:41:22.658Z,47.90
2018-07-13T00:43:52.386Z,47.90
2018-07-13T00:46:22.173Z,47.90
2018-07-13T00:48:51.599Z,47.90
2018-07-13T00:51:20.988Z,47.80
2018-07-13T00:53:50.308Z,47.80
2018-07-13T00:56:19.442Z,47.80
2018-07-13T00:58:48.747Z,47.90
2018-07-13T01:01:18.010Z,47.90
2018-07-13T01:03:47.138Z,47.90
2018-07-13T01:06:16.373Z,47.90
2018-07-13T01:08:45.286Z,47.80
2018-07-13T01:11:14.365Z,47.80
2018-07-13T01:13:43.640Z,47.80
2018-07-13T01:16:12.906Z,47.80
2018-07-13T01:18:42.253Z,47.80
2018-07-13T01:21:11.534Z,47.80
2018-07-13T01:23:40.801Z,47.80
2018-07-13T01:26:10.298Z,47.80
2018-07-13T01:28:39.442Z,47.80
2018-07-13T01:31:08.712Z,47.80
2018-07-13T01:33:37.892Z,47.80
2018-07-13T01:36:07.098Z,47.80
2018-07-13T01:38:36.330Z,47.80
2018-07-13T01:41:05.699Z,47.80
2018-07-13T01:43:35.133Z,47.80
2018-07-13T01:46:04.147Z,47.80
2018-07-13T01:48:33.274Z,47.80
2018-07-13T01:51:02.395Z,47.80
2018-07-13T01:53:31.803Z,48.40
2018-07-13T01:56:01.089Z,47.80
2018-07-13T01:58:30.250Z,47.80
2018-07-13T02:00:59.529Z,47.70
2018-07-13T02:03:28.815Z,47.70
2018-07-13T02:05:57.933Z,47.80
2018-07-13T02:08:27.358Z,47.80
2018-07-13T02:10:56.768Z,48.30
2018-07-13T02:13:26.049Z,47.70
2018-07-13T02:15:55.290Z,47.70
2018-07-13T02:18:24.614Z,47.70
2018-07-13T02:20:53.861Z,47.70
2018-07-13T02:23:23.037Z,47.70
2018-07-13T02:25:52.367Z,47.70
2018-07-13T02:28:21.545Z,47.70
2018-07-13T02:30:50.726Z,47.70
2018-07-13T02:33:19.996Z,47.70
2018-07-13T02:35:49.299Z,47.70
2018-07-13T02:38:18.640Z,47.60
2018-07-13T02:40:48.003Z,47.70
2018-07-13T02:43:17.300Z,47.70
2018-07-13T02:45:46.563Z,47.70
2018-07-13T02:48:15.916Z,47.60
2018-07-13T02:50:45.140Z,47.70
2018-07-13T02:53:14.383Z,47.70
2018-07-13T02:55:43.565Z,47.60
2018-07-13T02:58:12.811Z,47.60
2018-07-13T03:00:42.067Z,47.70
2018-07-13T03:03:11.456Z,47.70
2018-07-13T03:05:40.938Z,47.70
2018-07-13T03:08:10.031Z,47.60
2018-07-13T03:10:39.224Z,47.60
2018-07-13T03:13:08.549Z,47.60
2018-07-13T03:15:38.727Z,47.60
2018-07-13T03:18:07.954Z,47.70
2018-07-13T03:20:37.101Z,47.60
2018-07-13T03:23:06.512Z,47.60
2018-07-13T03:25:35.811Z,47.60
2018-07-13T03:28:05.091Z,47.60
2018-07-13T03:30:34.380Z,47.60
2018-07-13T03:33:03.573Z,47.60
2018-07-13T03:35:32.803Z,47.50
2018-07-13T03:38:02.035Z,47.50
2018-07-13T03:40:31.334Z,47.50
2018-07-13T03:43:00.664Z,47.60
2018-07-13T03:45:29.685Z,47.50
2018-07-13T03:47:58.828Z,47.50
2018-07-13T03:50:28.193Z,47.60
2018-07-13T03:52:57.667Z,47.50
2018-07-13T03:55:27.020Z,47.50
2018-07-13T03:57:56.290Z,47.50
2018-07-13T04:00:25.493Z,47.50
2018-07-13T04:02:54.899Z,47.50
2018-07-13T04:05:23.953Z,47.50
2018-07-13T04:07:53.198Z,47.50
2018-07-13T04:10:22.475Z,47.50
2018-07-13T04:12:51.458Z,47.40
2018-07-13T04:15:20.616Z,47.50
2018-07-13T04:17:49.886Z,47.40
2018-07-13T04:20:19.117Z,47.40
2018-07-13T04:22:49.176Z,47.40
2018-07-13T04:25:18.201Z,47.50
2018-07-13T04:27:48.678Z,47.40
2018-07-13T04:30:17.904Z,47.40
2018-07-13T04:32:47.147Z,47.40
2018-07-13T04:35:16.304Z,47.30
2018-07-13T04:37:45.489Z,47.40
2018-07-13T04:40:14.595Z,47.40
2018-07-13T04:42:43.701Z,47.40
2018-07-13T04:45:12.956Z,47.30
2018-07-13T04:47:42.256Z,47.30
2018-07-13T04:50:11.295Z,47.40
2018-07-13T04:52:40.445Z,47.30
2018-07-13T04:55:09.588Z,47.30
2018-07-13T04:57:38.723Z,47.40
2018-07-13T05:00:08.121Z,47.10
2018-07-13T05:02:37.840Z,47.20
2018-07-13T05:05:07.756Z,47.20
2018-07-13T05:07:37.376Z,47.20
2018-07-13T05:10:07.011Z,47.10
2018-07-13T05:12:36.519Z,47.10
2018-07-13T05:15:06.462Z,47.10
2018-07-13T05:17:35.696Z,47.10
2018-07-13T05:20:04.939Z,47.10
2018-07-13T05:22:34.365Z,47.20
2018-07-13T05:25:03.695Z,47.10
2018-07-13T05:27:33.581Z,47.10
2018-07-13T05:30:03.116Z,47.10
2018-07-13T05:32:32.447Z,47.10
2018-07-13T05:35:01.635Z,47.10
2018-07-13T05:37:31.708Z,47.10
2018-07-13T05:40:02.326Z,47.10
2018-07-13T05:42:31.657Z,47.10
2018-07-13T05:45:00.933Z,47.10
2018-07-13T05:47:30.157Z,47.10
2018-07-13T05:49:59.471Z,47.10
2018-07-13T05:52:28.598Z,47.10
2018-07-13T05:54:59.017Z,47.80
2018-07-13T05:57:28.603Z,48.80
2018-07-13T05:59:59.396Z,49.40
2018-07-13T06:02:28.888Z,50.90
2018-07-13T06:04:58.384Z,50.80
2018-07-13T06:07:28.281Z,51.90
2018-07-13T06:09:57.857Z,51.70
2018-07-13T06:12:27.289Z,51.90
2018-07-13T06:14:56.958Z,52.20
2018-07-13T06:17:26.874Z,52.30
2018-07-13T06:19:56.624Z,52.80
2018-07-13T06:22:26.405Z,52.60
2018-07-13T06:24:55.817Z,52.70
2018-07-13T06:27:25.334Z,52.50
2018-07-13T06:29:54.894Z,52.80
2018-07-13T06:32:24.485Z,52.00
2018-07-13T06:34:54.737Z,52.00
2018-07-13T06:37:24.473Z,52.00
2018-07-13T06:39:54.108Z,53.00
2018-07-13T06:42:23.629Z,54.00
2018-07-13T06:44:54.368Z,53.00
2018-07-13T06:47:24.059Z,52.90
2018-07-13T06:49:54.079Z,54.10
2018-07-13T06:52:23.937Z,54.00
2018-07-13T06:54:53.497Z,53.00
2018-07-13T06:57:31.644Z,53.60
2018-07-13T07:00:01.943Z,54.60
2018-07-13T07:02:40.181Z,55.40
2018-07-13T07:05:18.357Z,55.10
2018-07-13T07:07:47.965Z,53.80
2018-07-13T07:10:17.762Z,53.60
2018-07-13T07:12:56.795Z,53.50
2018-07-13T07:15:26.651Z,54.30
2018-07-13T07:17:56.531Z,55.20
2018-07-13T07:20:26.157Z,54.00
2018-07-13T07:22:55.796Z,53.10
2018-07-13T07:25:25.315Z,53.50
2018-07-13T07:27:54.604Z,54.20
2018-07-13T07:30:24.175Z,54.10
2018-07-13T07:32:53.457Z,53.80
2018-07-13T07:35:22.753Z,54.50
2018-07-13T07:37:58.873Z,55.00
2018-07-13T07:40:28.198Z,53.90
2018-07-13T07:42:57.273Z,53.70
2018-07-13T07:45:26.843Z,52.80
2018-07-13T07:47:56.496Z,53.20
2018-07-13T07:50:25.883Z,53.00
2018-07-13T07:52:56.208Z,53.90
2018-07-13T07:55:25.552Z,53.70
2018-07-13T07:57:55.225Z,53.70
2018-07-13T08:00:24.523Z,53.50
2018-07-13T08:02:54.179Z,53.00
2018-07-13T08:05:23.603Z,51.90
2018-07-13T08:07:53.350Z,51.20
2018-07-13T08:10:23.005Z,51.80
2018-07-13T08:12:52.600Z,52.50
2018-07-13T08:15:21.933Z,51.80
2018-07-13T08:17:51.499Z,51.20
2018-07-13T08:20:24.053Z,50.80
2018-07-13T08:22:59.506Z,51.40
2018-07-13T08:25:29.197Z,50.80
2018-07-13T08:28:00.941Z,51.30
2018-07-13T08:30:37.703Z,51.30
2018-07-13T08:33:07.310Z,51.00
2018-07-13T08:35:36.551Z,51.20
2018-07-13T08:38:06.860Z,51.40
2018-07-13T08:40:36.248Z,50.70
2018-07-13T08:43:05.988Z,50.80
2018-07-13T08:45:35.512Z,50.70
2018-07-13T08:48:04.957Z,50.20
2018-07-13T08:50:34.451Z,49.70
2018-07-13T08:53:03.767Z,49.30
2018-07-13T08:55:33.181Z,49.30
2018-07-13T08:58:02.667Z,49.50
2018-07-13T09:00:32.161Z,49.40
2018-07-13T09:03:02.265Z,49.90
2018-07-13T09:05:31.704Z,49.60
2018-07-13T09:08:01.031Z,49.90
2018-07-13T09:10:30.214Z,49.10
2018-07-13T09:12:59.653Z,49.10
2018-07-13T09:15:29.062Z,48.70
2018-07-13T09:17:58.795Z,48.70
2018-07-13T09:20:28.169Z,48.40
2018-07-13T09:22:57.674Z,48.70
2018-07-13T09:25:27.035Z,48.70
2018-07-13T09:27:56.772Z,48.60
2018-07-13T09:30:26.382Z,48.90
2018-07-13T09:32:55.603Z,48.70
2018-07-13T09:35:25.173Z,49.30
2018-07-13T09:37:54.422Z,49.10
2018-07-13T09:40:25.133Z,48.30
2018-07-13T09:42:55.008Z,48.10
2018-07-13T09:45:24.349Z,48.70
2018-07-13T09:47:54.048Z,48.00
2018-07-13T09:50:23.613Z,48.20
2018-07-13T09:52:53.135Z,48.10
2018-07-13T09:55:22.484Z,48.50
2018-07-13T09:57:52.009Z,47.80
2018-07-13T10:00:21.414Z,47.80
2018-07-13T10:02:50.795Z,48.10
2018-07-13T10:05:32.265Z,48.40
2018-07-13T10:08:02.367Z,48.30
2018-07-13T10:10:32.238Z,49.10
2018-07-13T10:13:01.734Z,48.40
2018-07-13T10:15:31.324Z,48.00
2018-07-13T10:18:00.865Z,48.10
2018-07-13T10:20:30.274Z,48.00
2018-07-13T10:22:59.947Z,48.00
2018-07-13T10:25:31.022Z,48.10
2018-07-13T10:28:00.637Z,48.00
2018-07-13T10:30:30.593Z,47.90
2018-07-13T10:32:59.749Z,48.20
2018-07-13T10:35:29.084Z,48.00
2018-07-13T10:37:58.305Z,47.90
2018-07-13T10:40:27.377Z,48.10
2018-07-13T10:42:56.437Z,48.20
2018-07-13T10:45:25.635Z,48.10
2018-07-13T10:47:54.702Z,48.00
2018-07-13T10:50:23.874Z,47.70
2018-07-13T10:52:53.035Z,47.80
2018-07-13T10:55:22.232Z,47.90
2018-07-13T10:57:51.352Z,47.70
2018-07-13T11:00:20.453Z,47.30
2018-07-13T11:02:49.695Z,47.30
2018-07-13T11:05:18.858Z,47.30
2018-07-13T11:07:47.959Z,47.80
2018-07-13T11:10:17.113Z,48.20
2018-07-13T11:12:46.174Z,47.70
2018-07-13T11:15:15.348Z,47.60
2018-07-13T11:17:44.847Z,47.30
2018-07-13T11:20:14.044Z,47.20
2018-07-13T11:22:43.228Z,47.60
2018-07-13T11:25:12.441Z,47.20
2018-07-13T11:27:41.629Z,47.30
2018-07-13T11:30:10.765Z,47.70
2018-07-13T11:32:39.874Z,47.40
2018-07-13T11:35:09.022Z,47.70
2018-07-13T11:37:38.019Z,47.40
2018-07-13T11:40:07.170Z,47.40
2018-07-13T11:42:36.307Z,47.00
2018-07-13T11:45:05.322Z,47.20
2018-07-13T11:47:34.445Z,47.30
2018-07-13T11:50:03.525Z,47.30
2018-07-13T11:52:32.719Z,47.30
2018-07-13T11:55:01.882Z,47.30
2018-07-13T11:57:31.008Z,47.20
2018-07-13T12:00:00.029Z,47.70
2018-07-13T12:02:29.238Z,47.20
2018-07-13T12:04:58.448Z,47.90
2018-07-13T12:07:27.708Z,47.70
2018-07-13T12:09:56.661Z,48.10
2018-07-13T12:12:25.872Z,47.30
2018-07-13T12:14:54.931Z,47.30
2018-07-13T12:17:24.210Z,47.50
2018-07-13T12:19:53.645Z,47.70
2018-07-13T12:22:22.858Z,47.60
2018-07-13T12:24:52.049Z,47.40
2018-07-13T12:27:26.876Z,47.60
2018-07-13T12:30:06.877Z,47.20
2018-07-13T12:32:42.364Z,47.30
2018-07-13T12:35:17.250Z,47.40
2018-07-13T12:37:52.840Z,47.30
2018-07-13T12:40:27.962Z,47.30
2018-07-13T12:43:03.378Z,47.30
2018-07-13T12:45:39.342Z,46.90
2018-07-13T12:48:13.234Z,47.30
2018-07-13T12:50:49.011Z,47.20
2018-07-13T12:53:24.207Z,47.10
2018-07-13T12:55:55.278Z,46.90
2018-07-13T12:58:29.198Z,46.80
2018-07-13T13:01:06.368Z,46.70
2018-07-13T13:03:43.761Z,46.70
2018-07-13T13:06:19.959Z,46.90
2018-07-13T13:08:56.424Z,47.10
2018-07-13T13:11:33.246Z,47.00
2018-07-13T13:14:08.128Z,47.20
2018-07-13T13:16:41.939Z,47.20
2018-07-13T13:19:18.429Z,47.20
2018-07-13T13:21:54.419Z,47.10
2018-07-13T13:24:29.662Z,47.70
2018-07-13T13:27:02.102Z,46.80
2018-07-13T13:29:34.768Z,47.10
2018-07-13T13:32:08.682Z,47.30
2018-07-13T13:34:41.950Z,46.90
2018-07-13T13:37:16.550Z,46.90
2018-07-13T13:39:53.032Z,46.90
2018-07-13T13:42:26.984Z,46.60
2018-07-13T13:45:06.615Z,46.60
2018-07-13T13:47:40.619Z,46.70
2018-07-13T13:50:13.470Z,46.80
2018-07-13T13:52:49.068Z,46.60
2018-07-13T13:55:23.301Z,46.70
2018-07-13T13:58:00.761Z,46.80
2018-07-13T14:00:35.015Z,46.90
2018-07-13T14:03:10.469Z,46.70
2018-07-13T14:05:56.177Z,46.70
2018-07-13T14:08:30.438Z,47.00
2018-07-13T14:11:05.072Z,46.70
2018-07-13T14:13:39.665Z,46.90
2018-07-13T14:16:14.802Z,46.50
2018-07-13T14:18:51.253Z,46.90
2018-07-13T14:21:24.163Z,46.80
2018-07-13T14:23:58.527Z,46.90
2018-07-13T14:26:33.400Z,46.70
2018-07-13T14:29:11.516Z,46.70
2018-07-13T14:31:46.605Z,46.90
2018-07-13T14:34:19.263Z,46.90
2018-07-13T14:36:54.810Z,46.60
2018-07-13T14:39:29.366Z,46.70
2018-07-13T14:41:58.635Z,46.60
2018-07-13T14:44:27.692Z,46.60
2018-07-13T14:46:56.857Z,46.80
2018-07-13T14:49:26.065Z,46.30
2018-07-13T14:51:55.307Z,47.00
2018-07-13T14:54:24.478Z,46.50
2018-07-13T14:56:53.648Z,46.40
2018-07-13T14:59:22.843Z,46.60
2018-07-13T15:01:51.970Z,47.30
2018-07-13T15:04:21.222Z,46.70
2018-07-13T15:06:50.375Z,46.80
